Time;durP1;ratioP1;P1;durP2;ratioP2;P2;SDS_P1;SDS_P2;PMS_P1;PMS_P2;Temp;Humidity;BMP_temperature;BMP_pressure;BME280_temperature;BME280_humidity;BME280_pressure;Samples;Min_cycle;Max_cycle;Signal;HPM_P1;HPM_P2
2022/05/25 00:00:57;;;;;;;2.73;1.30;;;13.20;99.90;;;;;;5072051;28;20185;-41
2022/05/25 00:03:22;;;;;;;2.30;1.53;;;13.20;99.90;;;;;;5070627;28;20230;-39
2022/05/25 00:05:48;;;;;;;2.30;2.10;;;13.20;99.90;;;;;;5071896;28;20419;-39
2022/05/25 00:08:14;;;;;;;2.60;1.57;;;13.30;99.90;;;;;;5070784;28;20189;-38
2022/05/25 00:10:40;;;;;;;2.10;1.50;;;13.30;99.90;;;;;;5072063;28;20472;-39
2022/05/25 00:13:07;;;;;;;4.20;1.37;;;13.20;99.90;;;;;;5070439;28;20427;-38
2022/05/25 00:15:33;;;;;;;1.53;1.20;;;13.20;99.90;;;;;;5070531;28;20889;-39
2022/05/25 00:17:58;;;;;;;1.97;1.13;;;13.10;99.90;;;;;;5071010;28;20550;-40
2022/05/25 00:20:24;;;;;;;2.80;1.10;;;13.10;99.90;;;;;;5071951;28;20434;-39
2022/05/25 00:22:52;;;;;;;2.50;1.40;;;13.00;99.90;;;;;;5070811;28;20193;-39
2022/05/25 00:25:30;;;;;;;2.53;1.50;;;13.00;99.90;;;;;;5070758;28;20771;-38
2022/05/25 00:27:56;;;;;;;2.33;1.30;;;12.90;99.90;;;;;;5071062;28;20548;-39
2022/05/25 00:30:24;;;;;;;1.90;1.30;;;12.90;99.90;;;;;;5071414;28;20427;-38
2022/05/25 00:32:50;;;;;;;1.87;1.40;;;12.80;99.90;;;;;;5071499;28;20773;-38
2022/05/25 00:35:19;;;;;;;3.50;1.23;;;12.70;99.90;;;;;;5071591;28;20528;-38
2022/05/25 00:37:45;;;;;;;2.30;1.43;;;12.70;99.90;;;;;;5069907;28;20460;-38
2022/05/25 00:40:15;;;;;;;1.50;1.40;;;12.70;99.90;;;;;;5071234;28;20416;-38
2022/05/25 00:42:41;;;;;;;7.83;1.70;;;12.70;99.90;;;;;;5067912;28;20411;-38
2022/05/25 00:45:07;;;;;;;2.10;1.37;;;12.60;99.90;;;;;;5071400;28;20473;-39
2022/05/25 00:47:35;;;;;;;3.07;1.80;;;12.50;99.90;;;;;;5070696;28;20454;-39
2022/05/25 00:50:00;;;;;;;1.90;1.47;;;12.50;99.90;;;;;;5076475;28;20489;-39
2022/05/25 00:52:27;;;;;;;1.50;1.33;;;12.50;99.90;;;;;;5070543;28;20510;-39
2022/05/25 00:55:02;;;;;;;2.23;1.60;;;12.50;99.90;;;;;;5069939;28;20403;-39
2022/05/25 00:57:43;;;;;;;2.07;1.87;;;12.50;99.90;;;;;;5070208;28;20454;-38
2022/05/25 01:00:09;;;;;;;2.53;1.80;;;12.50;99.90;;;;;;5071005;28;20493;-40
2022/05/25 01:02:38;;;;;;;3.80;2.30;;;12.40;99.90;;;;;;5071076;28;20468;-38
2022/05/25 01:05:05;;;;;;;3.00;2.10;;;12.40;99.90;;;;;;5070848;28;20850;-39
2022/05/25 01:07:53;;;;;;;2.00;1.63;;;12.40;99.90;;;;;;5069316;28;20431;-39
2022/05/25 01:11:03;;;;;;;2.60;2.30;;;12.40;99.90;;;;;;5070555;28;20514;-38
2022/05/25 01:13:53;;;;;;;2.13;1.93;;;12.40;99.90;;;;;;5067761;28;20845;-39
2022/05/25 01:16:39;;;;;;;2.50;2.03;;;12.40;99.90;;;;;;5070540;28;20431;-38
2022/05/25 01:19:38;;;;;;;2.80;2.33;;;12.30;99.90;;;;;;5070874;28;20774;-39
2022/05/25 01:22:22;;;;;;;4.37;2.37;;;12.30;99.90;;;;;;5069933;28;20419;-38
2022/05/25 01:25:06;;;;;;;4.13;2.93;;;12.30;99.90;;;;;;5070370;28;20427;-38
2022/05/25 01:27:53;;;;;;;6.13;2.73;;;12.30;99.90;;;;;;5069723;28;20469;-39
2022/05/25 01:30:33;;;;;;;3.00;2.70;;;12.30;99.90;;;;;;5070326;28;20423;-39
2022/05/25 01:33:34;;;;;;;4.93;2.97;;;12.30;99.90;;;;;;5070231;28;20419;-38
2022/05/25 01:36:11;;;;;;;4.47;2.90;;;12.30;99.90;;;;;;5066701;28;20427;-39
2022/05/25 01:38:41;;;;;;;4.30;2.73;;;12.20;99.90;;;;;;5068174;28;20814;-38
2022/05/25 01:41:11;;;;;;;2.83;2.60;;;12.20;99.90;;;;;;5069996;28;20427;-39
2022/05/25 01:43:59;;;;;;;4.63;3.20;;;12.20;99.90;;;;;;5081625;28;20609;-41
2022/05/25 01:46:31;;;;;;;4.50;2.90;;;12.20;99.90;;;;;;5064481;28;21117;-39
2022/05/25 01:48:58;;;;;;;3.90;2.13;;;12.20;99.90;;;;;;5069797;28;20965;-39
2022/05/25 01:51:30;;;;;;;3.70;3.00;;;12.20;99.90;;;;;;5070019;28;20416;-38
2022/05/25 01:54:00;;;;;;;3.97;3.00;;;12.30;99.90;;;;;;5051683;28;20462;-38
2022/05/25 01:56:29;;;;;;;3.30;3.00;;;12.30;99.90;;;;;;5050361;28;20428;-39
2022/05/25 01:59:00;;;;;;;3.10;2.80;;;12.20;99.90;;;;;;5053344;28;20569;-39
2022/05/25 02:01:27;;;;;;;5.00;3.17;;;12.30;99.90;;;;;;5059509;28;20425;-39
2022/05/25 02:07:01;;;;;;;3.73;3.43;;;12.10;99.90;;;;;;5069428;28;20430;-38
2022/05/25 02:09:30;;;;;;;3.27;2.53;;;12.20;99.90;;;;;;5048504;28;20429;-38
2022/05/25 02:12:11;;;;;;;5.70;3.63;;;12.20;99.90;;;;;;5057313;28;20414;-40
2022/05/25 02:14:43;;;;;;;3.00;2.70;;;12.20;99.90;;;;;;5069730;28;20419;-39
2022/05/25 02:17:27;;;;;;;3.53;2.93;;;12.20;99.90;;;;;;5060446;28;20467;-39
2022/05/25 02:19:55;;;;;;;3.80;3.20;;;12.20;99.90;;;;;;5069583;28;20450;-39
2022/05/25 02:22:29;;;;;;;5.40;3.33;;;12.20;99.90;;;;;;5064063;28;20435;-41
2022/05/25 02:25:00;;;;;;;4.53;3.07;;;12.20;99.90;;;;;;5053046;28;21117;-39
2022/05/25 02:27:41;;;;;;;3.40;2.73;;;12.20;99.90;;;;;;5051433;28;20433;-39
2022/05/25 02:30:13;;;;;;;5.43;2.97;;;12.20;99.90;;;;;;5069338;28;20945;-39
2022/05/25 02:32:48;;;;;;;3.23;2.70;;;12.20;99.90;;;;;;5065199;28;20435;-39
2022/05/25 02:35:16;;;;;;;5.70;2.93;;;12.20;99.90;;;;;;5069170;28;20431;-39
2022/05/25 02:37:43;;;;;;;2.80;2.47;;;12.10;99.90;;;;;;5063227;28;20561;-38
2022/05/25 02:40:11;;;;;;;4.13;2.10;;;12.10;99.90;;;;;;5050189;28;20436;-39
2022/05/25 02:42:38;;;;;;;4.20;2.80;;;12.00;99.90;;;;;;5056288;28;20442;-39
2022/05/25 02:45:04;;;;;;;3.60;2.80;;;12.00;99.90;;;;;;5069230;28;20430;-39
2022/05/25 02:47:30;;;;;;;3.03;2.83;;;12.00;99.90;;;;;;5054855;28;20817;-38
2022/05/25 02:49:55;;;;;;;3.07;2.80;;;12.00;99.90;;;;;;5068873;28;20443;-38
2022/05/25 02:52:21;;;;;;;8.80;2.80;;;12.00;99.90;;;;;;5065509;28;20220;-40
2022/05/25 02:54:47;;;;;;;3.40;3.00;;;12.00;99.90;;;;;;5052973;28;20292;-39
2022/05/25 02:57:13;;;;;;;3.13;2.83;;;12.00;99.90;;;;;;5057282;28;21023;-39
2022/05/25 02:59:39;;;;;;;2.70;2.50;;;11.90;99.90;;;;;;5058894;28;20236;-39
2022/05/25 03:02:05;;;;;;;4.37;3.07;;;11.90;99.90;;;;;;5059676;28;20451;-39
2022/05/25 03:04:37;;;;;;;2.87;2.67;;;11.90;99.90;;;;;;5068989;28;20280;-39
2022/05/25 03:07:03;;;;;;;6.70;3.50;;;11.90;99.90;;;;;;5064555;28;20189;-39
2022/05/25 03:09:29;;;;;;;3.63;3.33;;;11.90;99.90;;;;;;5048084;28;20435;-39
2022/05/25 03:11:55;;;;;;;5.23;3.70;;;11.90;99.90;;;;;;5055626;28;20431;-39
2022/05/25 03:14:21;;;;;;;4.93;3.60;;;11.90;99.90;;;;;;5068999;28;20185;-38
2022/05/25 03:16:46;;;;;;;3.40;3.10;;;11.80;99.90;;;;;;5059304;28;20469;-38
2022/05/25 03:19:12;;;;;;;4.40;3.27;;;11.90;99.90;;;;;;5068799;28;20260;-38
2022/05/25 03:21:37;;;;;;;3.27;2.97;;;11.90;99.90;;;;;;5068746;28;20189;-38
2022/05/25 03:24:03;;;;;;;5.00;4.00;;;11.80;99.90;;;;;;5056461;28;20186;-38
2022/05/25 03:26:30;;;;;;;4.90;3.43;;;11.80;99.90;;;;;;5055753;28;20231;-38
2022/05/25 03:28:56;;;;;;;4.13;3.70;;;11.80;99.90;;;;;;5058328;28;20246;-39
2022/05/25 03:31:22;;;;;;;5.63;3.90;;;11.80;99.90;;;;;;5067274;28;20415;-39
2022/05/25 03:33:48;;;;;;;4.83;3.67;;;11.80;99.90;;;;;;5061800;28;20451;-39
2022/05/25 03:36:13;;;;;;;4.90;3.57;;;11.80;99.90;;;;;;5058473;28;20192;-39
2022/05/25 03:38:39;;;;;;;4.60;4.07;;;11.80;99.90;;;;;;5047414;28;20209;-38
2022/05/25 03:41:05;;;;;;;5.27;3.93;;;11.80;99.90;;;;;;5052233;28;20216;-38
2022/05/25 03:43:34;;;;;;;6.33;3.43;;;11.70;99.90;;;;;;5055494;28;20189;-39
2022/05/25 03:45:59;;;;;;;4.70;4.00;;;11.90;99.90;;;;;;5064328;28;20528;-39
2022/05/25 03:48:25;;;;;;;5.40;3.70;;;11.90;99.90;;;;;;5056716;28;20481;-39
2022/05/25 03:50:51;;;;;;;4.70;4.20;;;11.90;99.90;;;;;;5068640;28;20208;-38
2022/05/25 03:53:17;;;;;;;5.33;4.07;;;11.90;99.90;;;;;;5059735;28;20194;-39
2022/05/25 03:55:42;;;;;;;5.40;4.40;;;11.90;99.90;;;;;;5056482;28;20177;-39
2022/05/25 03:58:09;;;;;;;4.80;4.20;;;11.90;99.90;;;;;;5051651;28;20464;-38
2022/05/25 04:00:35;;;;;;;4.40;3.83;;;11.90;99.90;;;;;;5067302;28;20675;-39
2022/05/25 04:03:02;;;;;;;6.83;3.97;;;11.90;99.90;;;;;;5065555;28;20464;-40
2022/05/25 04:05:32;;;;;;;4.67;4.27;;;11.90;99.90;;;;;;5072145;28;20420;-38
2022/05/25 04:08:00;;;;;;;5.33;4.00;;;11.90;99.90;;;;;;5066527;28;21505;-38
2022/05/25 04:10:27;;;;;;;4.60;3.90;;;11.90;99.90;;;;;;5057355;28;20414;-40
2022/05/25 04:12:53;;;;;;;6.50;4.77;;;12.00;99.90;;;;;;5053952;28;20424;-39
2022/05/25 04:15:22;;;;;;;4.90;3.80;;;11.90;99.90;;;;;;5069558;28;20415;-39
2022/05/25 04:17:48;;;;;;;5.13;4.60;;;12.00;99.90;;;;;;5059923;28;20462;-39
2022/05/25 04:20:15;;;;;;;4.70;4.30;;;12.00;99.90;;;;;;5058596;28;20456;-41
2022/05/25 04:22:41;;;;;;;5.10;4.13;;;12.00;99.90;;;;;;5051788;28;20422;-39
2022/05/25 04:25:10;;;;;;;5.57;4.77;;;11.90;99.90;;;;;;5054563;28;20428;-40
2022/05/25 04:27:37;;;;;;;5.43;4.23;;;11.90;99.90;;;;;;5050321;28;20420;-39
2022/05/25 04:30:06;;;;;;;4.43;4.03;;;11.90;99.90;;;;;;5061787;28;20427;-39
2022/05/25 04:32:32;;;;;;;6.03;5.00;;;12.00;99.90;;;;;;5060498;28;20525;-39
2022/05/25 04:34:58;;;;;;;6.17;4.17;;;12.10;99.90;;;;;;5070993;28;20423;-39
2022/05/25 04:40:11;;;;;;;5.50;4.30;;;12.10;99.90;;;;;;5050972;28;20492;-39
2022/05/25 04:42:37;;;;;;;6.70;4.60;;;12.20;99.90;;;;;;5052780;28;20534;-40
2022/05/25 04:45:03;;;;;;;6.00;4.83;;;12.10;99.90;;;;;;5057045;28;20990;-39
2022/05/25 04:47:34;;;;;;;5.90;4.70;;;12.10;99.90;;;;;;5053130;28;20515;-38
2022/05/25 04:50:01;;;;;;;5.90;4.50;;;12.10;99.90;;;;;;5058710;28;20432;-41
2022/05/25 04:52:27;;;;;;;4.60;4.20;;;12.20;99.90;;;;;;5062931;28;20485;-40
2022/05/25 04:54:53;;;;;;;5.50;4.87;;;12.30;99.90;;;;;;5049359;28;20502;-39
2022/05/25 04:57:19;;;;;;;7.47;5.40;;;12.40;99.90;;;;;;5056751;28;20479;-38
2022/05/25 04:59:49;;;;;;;4.97;4.47;;;12.50;99.90;;;;;;5061696;28;20466;-39
2022/05/25 05:02:16;;;;;;;8.23;5.20;;;12.60;99.90;;;;;;5068409;28;20419;-39
2022/05/25 05:04:42;;;;;;;5.30;4.40;;;12.60;99.90;;;;;;5071033;28;20435;-39
2022/05/25 05:07:08;;;;;;;5.43;4.40;;;12.70;99.90;;;;;;5070167;28;20825;-39
2022/05/25 05:09:35;;;;;;;4.37;3.97;;;12.70;99.90;;;;;;5058481;28;20444;-39
2022/05/25 05:12:01;;;;;;;6.20;4.37;;;12.90;99.90;;;;;;5056443;28;20177;-39
2022/05/25 05:14:27;;;;;;;5.87;5.07;;;12.90;99.90;;;;;;5063297;28;20470;-41
2022/05/25 05:17:02;;;;;;;7.93;5.37;;;12.90;99.90;;;;;;5056076;28;20436;-40
2022/05/25 05:19:29;;;;;;;5.27;4.53;;;12.80;99.90;;;;;;5052847;28;21183;-40
2022/05/25 05:21:57;;;;;;;5.40;4.67;;;12.80;99.90;;;;;;5069445;28;20419;-39
2022/05/25 05:24:23;;;;;;;6.30;4.33;;;12.80;99.90;;;;;;5058695;28;20962;-39
2022/05/25 05:26:49;;;;;;;5.87;4.83;;;12.80;99.90;;;;;;5056938;28;20504;-39
2022/05/25 05:29:15;;;;;;;9.40;4.57;;;13.00;99.90;;;;;;5063649;28;21063;-39
2022/05/25 05:31:40;;;;;;;6.00;4.20;;;13.10;99.90;;;;;;5067980;28;20185;-39
2022/05/25 05:34:06;;;;;;;4.80;4.27;;;13.20;99.90;;;;;;5063519;28;20192;-39
2022/05/25 05:36:46;;;;;;;4.40;3.90;;;13.20;99.90;;;;;;5061581;28;20189;-39
2022/05/25 05:39:15;;;;;;;4.80;4.00;;;13.30;99.90;;;;;;5055529;28;20280;-39
2022/05/25 05:41:51;;;;;;;5.40;3.73;;;13.30;99.90;;;;;;5065393;28;20420;-40
2022/05/25 05:44:22;;;;;;;5.43;4.00;;;13.30;99.90;;;;;;5046381;28;20423;-39
2022/05/25 05:46:50;;;;;;;5.47;4.10;;;13.40;99.90;;;;;;5054456;28;20417;-39
2022/05/25 05:49:16;;;;;;;6.33;3.60;;;13.30;99.90;;;;;;5054118;28;20424;-38
2022/05/25 05:51:42;;;;;;;4.13;3.20;;;13.60;99.90;;;;;;5054700;28;20951;-39
2022/05/25 05:54:08;;;;;;;4.00;3.03;;;13.80;99.90;;;;;;5058748;28;20567;-39
2022/05/25 05:56:35;;;;;;;2.67;2.33;;;14.10;99.90;;;;;;5049974;28;20200;-39
2022/05/25 05:59:01;;;;;;;3.80;2.63;;;14.30;99.90;;;;;;5053715;28;20466;-39
2022/05/25 06:01:27;;;;;;;3.60;2.60;;;14.60;99.90;;;;;;5068360;28;20424;-40
2022/05/25 06:03:53;;;;;;;3.53;2.60;;;14.70;99.90;;;;;;5056835;28;20459;-38
2022/05/25 06:06:18;;;;;;;4.70;2.50;;;14.80;99.90;;;;;;5055262;28;20519;-39
2022/05/25 06:08:46;;;;;;;3.40;3.10;;;14.70;99.90;;;;;;5048202;28;20194;-39
2022/05/25 06:11:13;;;;;;;2.57;2.23;;;14.80;99.90;;;;;;5051664;28;20827;-39
2022/05/25 06:13:40;;;;;;;4.00;2.57;;;15.00;99.90;;;;;;5060375;28;20473;-40
2022/05/25 06:21:34;;;;;;;5.50;2.43;;;15.40;99.90;;;;;;5069571;28;20419;-39
2022/05/25 06:24:00;;;;;;;3.73;2.20;;;15.70;99.90;;;;;;5063899;28;21079;-40
2022/05/25 06:26:30;;;;;;;4.97;2.00;;;15.90;99.90;;;;;;5051415;28;20192;-41
2022/05/25 06:28:57;;;;;;;1.90;1.70;;;16.00;99.90;;;;;;5049951;28;20224;-39
2022/05/25 06:31:23;;;;;;;4.60;2.07;;;16.10;99.90;;;;;;5066635;28;20428;-39
2022/05/25 06:33:49;;;;;;;1.97;1.60;;;16.20;99.90;;;;;;5065081;28;20427;-39
2022/05/25 06:36:20;;;;;;;2.20;1.50;;;16.10;99.90;;;;;;5069447;28;20442;-39
2022/05/25 06:38:46;;;;;;;3.17;1.90;;;16.20;99.90;;;;;;5066438;28;20467;-39
2022/05/25 06:41:12;;;;;;;2.00;1.70;;;16.10;99.90;;;;;;5049822;28;21096;-38
2022/05/25 06:43:37;;;;;;;4.30;1.30;;;16.20;99.90;;;;;;5045458;28;20511;-38
2022/05/25 06:46:03;;;;;;;4.57;3.43;;;16.10;99.90;;;;;;5066885;28;20650;-38
2022/05/25 06:48:29;;;;;;;3.20;1.80;;;16.20;99.90;;;;;;5067960;28;20193;-38
2022/05/25 06:50:55;;;;;;;3.77;1.83;;;16.40;99.90;;;;;;5066775;28;20431;-38
2022/05/25 06:53:21;;;;;;;2.60;1.70;;;16.60;99.90;;;;;;5059045;28;20214;-39
2022/05/25 06:55:47;;;;;;;4.30;1.53;;;16.50;99.90;;;;;;5054387;28;20436;-38
2022/05/25 06:58:13;;;;;;;4.37;1.80;;;16.60;99.90;;;;;;5048212;28;20464;-38
2022/05/25 07:00:38;;;;;;;2.80;1.50;;;16.60;99.90;;;;;;5067116;28;20184;-39
2022/05/25 07:03:06;;;;;;;2.13;1.43;;;16.80;99.90;;;;;;5061613;28;20699;-39
2022/05/25 07:05:32;;;;;;;1.90;1.57;;;16.80;99.90;;;;;;5067518;28;20188;-39
2022/05/25 07:07:58;;;;;;;3.00;1.43;;;16.90;99.90;;;;;;5068290;28;20438;-39
2022/05/25 07:10:23;;;;;;;3.93;1.70;;;16.80;99.90;;;;;;5054277;28;20531;-39
2022/05/25 07:12:49;;;;;;;3.70;1.80;;;16.70;99.90;;;;;;5055439;28;20182;-38
2022/05/25 07:15:15;;;;;;;3.33;1.40;;;16.60;99.90;;;;;;5067293;28;20534;-38
2022/05/25 07:17:40;;;;;;;13.73;3.50;;;16.70;99.90;;;;;;5055493;28;20240;-39
2022/05/25 07:20:09;;;;;;;7.00;2.07;;;16.70;99.90;;;;;;5067328;28;20192;-38
2022/05/25 07:22:35;;;;;;;2.43;1.17;;;16.90;99.90;;;;;;5068451;28;20285;-38
2022/05/25 07:25:01;;;;;;;4.97;1.90;;;17.00;99.90;;;;;;5058960;28;20494;-38
2022/05/25 07:27:27;;;;;;;1.93;1.20;;;17.00;99.90;;;;;;5048354;28;20787;-39
2022/05/25 07:29:52;;;;;;;2.53;1.23;;;17.20;99.90;;;;;;5058414;28;20578;-38
2022/05/25 07:32:20;;;;;;;2.30;1.20;;;17.40;99.90;;;;;;5068762;28;20196;-38
2022/05/25 07:34:50;;;;;;;2.93;1.70;;;17.50;99.90;;;;;;5068605;28;20280;-39
2022/05/25 07:37:21;;;;;;;2.07;1.40;;;17.60;99.90;;;;;;5071673;28;20500;-38
2022/05/25 07:39:52;;;;;;;3.53;1.30;;;17.50;99.90;;;;;;5065106;28;20465;-39
2022/05/25 07:42:20;;;;;;;1.97;1.40;;;17.40;99.90;;;;;;5056402;28;20438;-39
2022/05/25 07:44:57;;;;;;;3.67;1.20;;;17.40;99.90;;;;;;5060480;28;20415;-39
2022/05/25 07:47:24;;;;;;;2.10;1.00;;;17.40;99.90;;;;;;5071842;28;20972;-39
2022/05/25 07:49:49;;;;;;;2.43;1.40;;;17.30;99.90;;;;;;5066445;28;20434;-39
2022/05/25 07:52:15;;;;;;;1.40;1.30;;;17.30;99.90;;;;;;5072248;28;20431;-38
2022/05/25 07:54:43;;;;;;;2.77;1.17;;;17.20;99.90;;;;;;5065317;28;20277;-39
2022/05/25 07:57:10;;;;;;;2.00;1.07;;;17.10;99.90;;;;;;5051396;28;21298;-39
2022/05/25 07:59:36;;;;;;;1.70;1.40;;;16.90;99.90;;;;;;5061702;28;20423;-39
2022/05/25 08:07:36;;;;;;;2.87;1.33;;;16.80;99.90;;;;;;5070262;28;20431;-38
2022/05/25 08:10:09;;;;;;;2.50;1.30;;;16.80;99.90;;;;;;5065470;28;20471;-38
2022/05/25 08:12:38;;;;;;;3.43;1.73;;;16.80;99.90;;;;;;5057797;28;20427;-38
2022/05/25 08:15:05;;;;;;;2.00;1.20;;;16.70;99.90;;;;;;5057679;28;20964;-39
2022/05/25 08:17:30;;;;;;;4.20;1.47;;;16.60;99.90;;;;;;5062977;28;20501;-39
2022/05/25 08:19:56;;;;;;;2.70;1.63;;;16.50;99.90;;;;;;5069379;28;20419;-39
2022/05/25 08:22:22;;;;;;;3.10;1.30;;;16.60;99.90;;;;;;5071916;28;20200;-38
2022/05/25 08:24:47;;;;;;;11.57;2.53;;;16.60;99.90;;;;;;5064853;28;20218;-39
2022/05/25 08:27:13;;;;;;;1.93;1.00;;;16.80;99.90;;;;;;5051840;28;20195;-39
2022/05/25 08:29:39;;;;;;;3.70;1.30;;;16.80;99.90;;;;;;5058926;28;20196;-38
2022/05/25 08:32:04;;;;;;;3.80;1.30;;;16.70;99.90;;;;;;5071736;28;20181;-39
2022/05/25 08:34:31;;;;;;;1.90;0.97;;;16.80;99.90;;;;;;5059353;28;20197;-39
2022/05/25 08:36:57;;;;;;;3.10;1.10;;;16.80;99.90;;;;;;5070882;28;20231;-39
2022/05/25 08:39:23;;;;;;;1.33;0.87;;;16.80;99.90;;;;;;5069641;28;20427;-38
2022/05/25 08:41:52;;;;;;;3.27;1.10;;;16.90;99.90;;;;;;5055484;28;20416;-38
2022/05/25 08:44:19;;;;;;;1.27;0.80;;;16.90;99.90;;;;;;5062108;28;20945;-38
2022/05/25 08:46:45;;;;;;;4.80;1.10;;;17.00;99.90;;;;;;5070222;28;20416;-39
2022/05/25 08:49:14;;;;;;;3.10;1.13;;;16.90;99.90;;;;;;5068162;28;20769;-39
2022/05/25 08:51:47;;;;;;;1.00;0.70;;;17.00;99.60;;;;;;5070191;28;20473;-39
2022/05/25 08:54:14;;;;;;;4.70;1.20;;;17.00;99.80;;;;;;5070055;28;20423;-38
2022/05/25 08:56:56;;;;;;;2.60;0.80;;;17.00;99.90;;;;;;5051661;28;20463;-38
2022/05/25 08:59:49;;;;;;;2.20;1.07;;;17.00;99.60;;;;;;5050403;28;20519;-38
2022/05/25 09:02:33;;;;;;;2.50;0.90;;;17.10;99.90;;;;;;5068899;28;20408;-38
2022/05/25 09:05:20;;;;;;;1.60;0.63;;;17.30;99.70;;;;;;5066902;28;20446;-38
2022/05/25 09:08:21;;;;;;;3.33;0.90;;;17.50;99.40;;;;;;5070519;28;20415;-38
2022/05/25 09:10:58;;;;;;;2.40;0.90;;;17.70;99.30;;;;;;5060917;28;20432;-38
2022/05/25 09:13:33;;;;;;;2.70;1.20;;;17.70;98.40;;;;;;5053406;28;20952;-38
2022/05/25 09:18:53;;;;;;;1.90;0.70;;;17.90;98.10;;;;;;5038242;28;20472;-38
2022/05/25 09:21:23;;;;;;;2.67;1.17;;;18.00;98.50;;;;;;5065622;28;20418;-40
2022/05/25 09:23:52;;;;;;;1.30;0.70;;;18.10;97.50;;;;;;5070876;28;20443;-39
2022/05/25 09:26:18;;;;;;;1.83;0.70;;;18.10;97.50;;;;;;5057379;28;20506;-39
2022/05/25 09:28:47;;;;;;;1.40;0.97;;;18.20;97.70;;;;;;5054821;28;20424;-39
2022/05/25 09:31:23;;;;;;;2.53;1.03;;;18.30;98.40;;;;;;5066820;28;20240;-38
2022/05/25 09:33:57;;;;;;;1.50;0.90;;;18.40;97.80;;;;;;5064753;28;20423;-39
2022/05/25 09:36:30;;;;;;;2.17;1.00;;;18.50;97.60;;;;;;5068969;28;20446;-38
2022/05/25 09:39:23;;;;;;;1.60;0.80;;;18.50;97.00;;;;;;5069847;28;20516;-39
2022/05/25 09:41:54;;;;;;;2.60;0.80;;;18.50;97.90;;;;;;5051969;28;20464;-39
2022/05/25 09:44:20;;;;;;;1.57;0.60;;;18.60;97.70;;;;;;5056112;28;20412;-39
2022/05/25 09:47:27;;;;;;;1.10;0.70;;;18.70;97.30;;;;;;5059883;28;20431;-39
2022/05/25 09:49:57;;;;;;;2.10;0.80;;;18.90;97.00;;;;;;5065396;28;20434;-39
2022/05/25 09:52:36;;;;;;;1.83;0.70;;;19.00;96.80;;;;;;5070004;28;20423;-39
2022/05/25 09:55:04;;;;;;;1.40;0.77;;;19.10;96.60;;;;;;5066415;28;20447;-39
2022/05/25 09:57:35;;;;;;;1.17;1.00;;;19.10;96.90;;;;;;5048825;28;20971;-39
2022/05/25 10:00:05;;;;;;;2.07;0.63;;;19.30;97.20;;;;;;5055423;28;20545;-39
2022/05/25 10:02:50;;;;;;;3.73;1.40;;;19.40;95.10;;;;;;5069965;28;20431;-40
2022/05/25 10:05:27;;;;;;;1.50;0.70;;;19.10;94.30;;;;;;5056346;28;20435;-39
2022/05/25 10:07:54;;;;;;;7.43;1.13;;;19.20;96.20;;;;;;5069167;28;20462;-38
2022/05/25 10:10:50;;;;;;;0.60;0.47;;;19.10;94.80;;;;;;5066035;28;20428;-40
2022/05/25 10:13:21;;;;;;;0.70;0.50;;;19.10;94.40;;;;;;5055199;28;20504;-39
2022/05/25 10:15:51;;;;;;;0.90;0.53;;;19.10;94.10;;;;;;5055100;28;20432;-39
2022/05/25 10:18:38;;;;;;;0.70;0.50;;;19.20;95.40;;;;;;5065440;28;20462;-38
2022/05/25 10:21:09;;;;;;;0.90;0.67;;;19.30;94.70;;;;;;5062870;28;20518;-39
2022/05/25 10:23:41;;;;;;;0.50;0.40;;;19.40;94.50;;;;;;5068195;28;20447;-38
2022/05/25 10:26:31;;;;;;;1.57;0.57;;;19.40;93.10;;;;;;5060758;28;20444;-39
2022/05/25 10:29:04;;;;;;;0.70;0.50;;;19.40;92.70;;;;;;5049549;28;21130;-38
2022/05/25 10:37:07;;;;;;;0.90;0.70;;;19.40;94.20;;;;;;5067441;28;20427;-39
2022/05/25 10:39:48;;;;;;;3.40;0.67;;;19.50;93.90;;;;;;5069216;28;20881;-39
2022/05/25 10:42:44;;;;;;;2.43;0.50;;;19.60;93.30;;;;;;5051193;28;20438;-41
2022/05/25 10:45:19;;;;;;;1.73;0.90;;;19.50;93.50;;;;;;5050492;28;20420;-39
2022/05/25 10:48:07;;;;;;;2.07;0.73;;;19.20;93.60;;;;;;5068368;28;20423;-38
2022/05/25 10:50:56;;;;;;;1.50;0.60;;;19.20;92.90;;;;;;5055576;28;20427;-38
2022/05/25 10:53:41;;;;;;;1.07;0.70;;;19.40;92.80;;;;;;5067892;28;20423;-39
2022/05/25 10:56:34;;;;;;;2.43;0.80;;;19.50;93.40;;;;;;5060809;28;20521;-38
2022/05/25 10:59:44;;;;;;;0.90;0.80;;;19.50;93.30;;;;;;5054389;28;20802;-39
2022/05/25 11:02:51;;;;;;;2.00;0.90;;;19.50;92.30;;;;;;5053416;28;20434;-39
2022/05/25 11:05:24;;;;;;;1.07;0.93;;;19.70;92.80;;;;;;5051855;28;20427;-39
2022/05/25 11:07:54;;;;;;;0.77;0.77;;;20.00;93.40;;;;;;5068312;28;20455;-38
2022/05/25 11:10:26;;;;;;;3.00;0.70;;;20.10;92.80;;;;;;5068390;28;21070;-38
2022/05/25 11:13:14;;;;;;;1.40;0.80;;;20.20;92.20;;;;;;5048868;28;20416;-38
2022/05/25 11:15:58;;;;;;;0.93;0.60;;;20.30;93.50;;;;;;5046257;28;20427;-39
2022/05/25 11:18:49;;;;;;;1.17;0.60;;;20.20;91.70;;;;;;5065690;28;20561;-39
2022/05/25 11:21:30;;;;;;;1.87;0.80;;;20.30;91.40;;;;;;5063088;28;20431;-40
2022/05/25 11:24:24;;;;;;;1.63;0.80;;;20.40;90.60;;;;;;5068903;28;20423;-38
2022/05/25 11:27:26;;;;;;;1.07;0.60;;;20.40;90.90;;;;;;5056860;28;20479;-39
2022/05/25 11:30:00;;;;;;;0.90;0.60;;;20.20;90.70;;;;;;5055355;28;20441;-39
2022/05/25 11:32:51;;;;;;;2.50;0.70;;;20.10;91.60;;;;;;5061244;28;20817;-39
2022/05/25 11:35:48;;;;;;;1.27;0.97;;;20.00;92.10;;;;;;5067130;28;20446;-39
2022/05/25 11:38:44;;;;;;;3.00;0.93;;;19.70;91.40;;;;;;5068104;28;20558;-39
2022/05/25 11:41:34;;;;;;;1.60;1.20;;;19.60;91.40;;;;;;5062940;28;20428;-39
2022/05/25 11:44:06;;;;;;;1.90;0.80;;;19.50;91.20;;;;;;5045967;28;20934;-39
2022/05/25 11:46:46;;;;;;;2.50;1.00;;;19.40;92.30;;;;;;5055737;28;20536;-40
2022/05/25 11:49:31;;;;;;;0.80;0.60;;;19.30;92.00;;;;;;5067518;28;20544;-38
2022/05/25 11:52:23;;;;;;;0.63;0.63;;;19.20;91.20;;;;;;5060942;28;20466;-39
2022/05/25 11:54:55;;;;;;;0.90;0.80;;;19.10;92.10;;;;;;5067112;28;20415;-39
2022/05/25 11:57:39;;;;;;;0.70;0.60;;;19.10;92.10;;;;;;5052815;28;20818;-38
2022/05/25 12:00:20;;;;;;;1.20;0.70;;;19.30;92.20;;;;;;5054659;28;20557;-39
2022/05/25 12:03:06;;;;;;;1.63;0.57;;;19.50;93.50;;;;;;5068517;28;20434;-39
2022/05/25 12:06:00;;;;;;;2.80;0.80;;;19.70;91.00;;;;;;5062119;28;20526;-39
2022/05/25 12:08:47;;;;;;;2.20;1.37;;;19.90;91.50;;;;;;5066427;28;20439;-38
2022/05/25 12:11:50;;;;;;;1.00;0.80;;;20.10;90.70;;;;;;5063988;28;20421;-39
2022/05/25 12:14:34;;;;;;;0.77;0.60;;;20.00;89.20;;;;;;5045954;28;20428;-38
2022/05/25 12:17:24;;;;;;;1.00;0.50;;;20.00;88.90;;;;;;5055150;28;20419;-39
2022/05/25 12:19:51;;;;;;;0.90;0.60;;;20.10;89.80;;;;;;5065289;28;20409;-39
2022/05/25 12:22:20;;;;;;;1.20;1.00;;;20.30;90.90;;;;;;5070906;28;20942;-39
2022/05/25 12:24:53;;;;;;;2.13;0.90;;;20.30;88.50;;;;;;5071468;28;20573;-39
2022/05/25 12:27:29;;;;;;;1.43;0.50;;;20.30;90.30;;;;;;5058950;28;20466;-39
2022/05/25 12:30:04;;;;;;;1.57;0.80;;;20.40;88.90;;;;;;5058419;28;20953;-39
2022/05/25 12:32:30;;;;;;;1.13;0.50;;;20.50;89.40;;;;;;5064464;28;20427;-39
2022/05/25 12:34:56;;;;;;;2.03;0.80;;;20.50;86.60;;;;;;5066618;28;20439;-41
2022/05/25 12:37:35;;;;;;;1.57;0.70;;;20.40;87.50;;;;;;5063177;28;20993;-39
2022/05/25 12:40:07;;;;;;;1.53;0.70;;;20.20;85.30;;;;;;5071477;28;20445;-40
2022/05/25 12:42:42;;;;;;;1.90;0.50;;;20.00;85.40;;;;;;5059252;28;20424;-39
2022/05/25 12:48:31;;;;;;;2.30;0.57;;;20.00;86.90;;;;;;5049077;28;20423;-39
2022/05/25 12:51:30;;;;;;;2.53;1.00;;;20.10;87.80;;;;;;5063410;28;20435;-39
2022/05/25 12:53:59;;;;;;;2.30;0.80;;;20.10;86.20;;;;;;5069332;28;20882;-39
2022/05/25 12:56:24;;;;;;;1.47;0.90;;;20.00;85.50;;;;;;5067491;28;20808;-38
2022/05/25 12:58:50;;;;;;;0.80;0.60;;;20.00;86.60;;;;;;5053225;28;20455;-39
2022/05/25 13:01:28;;;;;;;4.17;0.90;;;19.80;87.50;;;;;;5055643;28;20182;-39
2022/05/25 13:03:57;;;;;;;1.57;0.50;;;19.80;86.90;;;;;;5069166;28;20231;-38
2022/05/25 13:06:46;;;;;;;2.90;0.73;;;19.60;87.10;;;;;;5067331;28;20419;-38
2022/05/25 13:09:43;;;;;;;1.07;0.70;;;19.70;88.60;;;;;;5067656;28;20538;-39
2022/05/25 13:12:36;;;;;;;3.80;0.90;;;19.80;88.90;;;;;;5063027;28;20527;-39
2022/05/25 13:15:02;;;;;;;0.83;0.70;;;19.80;88.80;;;;;;5050595;28;20427;-39
2022/05/25 13:17:53;;;;;;;1.67;0.70;;;19.90;91.20;;;;;;5061552;28;20516;-38
2022/05/25 13:20:28;;;;;;;2.20;1.00;;;20.10;89.00;;;;;;5063479;28;20914;-40
2022/05/25 13:23:02;;;;;;;1.67;0.83;;;20.10;89.40;;;;;;5065132;28;20514;-39
2022/05/25 13:25:40;;;;;;;0.67;0.60;;;20.10;85.10;;;;;;5070672;28;20863;-38
2022/05/25 13:28:27;;;;;;;1.07;0.57;;;19.90;82.20;;;;;;5056661;28;20462;-39
2022/05/25 13:30:58;;;;;;;1.70;0.87;;;19.70;84.00;;;;;;5051737;28;20833;-38
2022/05/25 13:33:35;;;;;;;1.40;0.70;;;19.50;85.30;;;;;;5044318;28;20411;-38
2022/05/25 13:36:13;;;;;;;0.73;0.43;;;19.50;85.20;;;;;;5061286;28;20427;-38
2022/05/25 13:38:58;;;;;;;4.53;0.60;;;19.50;86.50;;;;;;5069992;28;20591;-39
2022/05/25 13:41:28;;;;;;;1.53;0.90;;;19.50;87.00;;;;;;5069329;28;20774;-38
2022/05/25 13:44:23;;;;;;;0.60;0.53;;;19.50;85.20;;;;;;5050511;28;20505;-38